sensor_id;sensor_type;location;lat;lon;timestamp;pressure;altitude;pressure_sealevel;temperature;humidity
42125;BME280;27787;44.594;11.046;2023-03-03T00:00:50;101204.78;;;7.23;94.93
42125;BME280;27787;44.594;11.046;2023-03-03T00:03:34;101203.13;;;7.26;94.84
42125;BME280;27787;44.594;11.046;2023-03-03T00:06:20;101198.88;;;7.30;94.42
42125;BME280;27787;44.594;11.046;2023-03-03T00:09:04;101194.50;;;7.30;94.08
42125;BME280;27787;44.594;11.046;2023-03-03T00:11:53;101189.97;;;7.25;94.36
42125;BME280;27787;44.594;11.046;2023-03-03T00:14:39;101198.72;;;7.25;94.55
42125;BME280;27787;44.594;11.046;2023-03-03T00:17:28;101204.88;;;7.26;94.51
42125;BME280;27787;44.594;11.046;2023-03-03T00:23:19;101208.84;;;7.12;95.05
42125;BME280;27787;44.594;11.046;2023-03-03T00:26:30;101209.41;;;7.01;95.88
42125;BME280;27787;44.594;11.046;2023-03-03T00:29:45;101209.06;;;6.89;96.56
42125;BME280;27787;44.594;11.046;2023-03-03T00:32:50;101209.88;;;6.87;97.32
42125;BME280;27787;44.594;11.046;2023-03-03T00:35:36;101209.06;;;6.89;98.04
42125;BME280;27787;44.594;11.046;2023-03-03T00:38:23;101207.41;;;6.91;98.27
42125;BME280;27787;44.594;11.046;2023-03-03T00:41:22;101212.72;;;6.94;98.24
42125;BME280;27787;44.594;11.046;2023-03-03T00:44:37;101202.34;;;6.99;98.62
42125;BME280;27787;44.594;11.046;2023-03-03T00:47:34;101200.03;;;7.09;97.77
42125;BME280;27787;44.594;11.046;2023-03-03T00:50:29;101199.41;;;7.18;97.34
42125;BME280;27787;44.594;11.046;2023-03-03T00:53:16;101191.72;;;7.26;96.50
42125;BME280;27787;44.594;11.046;2023-03-03T00:56:00;101184.00;;;7.30;96.22
42125;BME280;27787;44.594;11.046;2023-03-03T00:58:44;101179.78;;;7.37;95.64
42125;BME280;27787;44.594;11.046;2023-03-03T01:01:31;101180.75;;;7.40;94.76
42125;BME280;27787;44.594;11.046;2023-03-03T01:04:15;101173.84;;;7.43;94.22
42125;BME280;27787;44.594;11.046;2023-03-03T01:07:00;101170.44;;;7.47;94.30
42125;BME280;27787;44.594;11.046;2023-03-03T01:09:44;101171.34;;;7.49;94.14
42125;BME280;27787;44.594;11.046;2023-03-03T01:12:28;101166.91;;;7.46;93.70
42125;BME280;27787;44.594;11.046;2023-03-03T01:15:14;101159.75;;;7.40;93.70
42125;BME280;27787;44.594;11.046;2023-03-03T01:17:58;101154.34;;;7.34;94.49
42125;BME280;27787;44.594;11.046;2023-03-03T01:20:42;101156.69;;;7.24;95.01
42125;BME280;27787;44.594;11.046;2023-03-03T01:23:27;101159.22;;;7.21;95.46
42125;BME280;27787;44.594;11.046;2023-03-03T01:26:12;101150.53;;;7.23;95.62
42125;BME280;27787;44.594;11.046;2023-03-03T01:28:56;101151.59;;;7.30;95.19
42125;BME280;27787;44.594;11.046;2023-03-03T01:31:40;101149.03;;;7.31;95.11
42125;BME280;27787;44.594;11.046;2023-03-03T01:34:24;101150.78;;;7.32;94.72
42125;BME280;27787;44.594;11.046;2023-03-03T01:37:09;101144.75;;;7.36;94.52
42125;BME280;27787;44.594;11.046;2023-03-03T01:39:54;101149.19;;;7.39;94.25
42125;BME280;27787;44.594;11.046;2023-03-03T01:42:38;101139.59;;;7.39;93.86
42125;BME280;27787;44.594;11.046;2023-03-03T01:45:25;101137.84;;;7.40;93.85
42125;BME280;27787;44.594;11.046;2023-03-03T01:48:15;101139.59;;;7.39;93.70
42125;BME280;27787;44.594;11.046;2023-03-03T01:51:06;101140.38;;;7.35;93.70
42125;BME280;27787;44.594;11.046;2023-03-03T01:53:57;101135.06;;;7.34;93.95
42125;BME280;27787;44.594;11.046;2023-03-03T01:56:42;101135.09;;;7.35;94.06
42125;BME280;27787;44.594;11.046;2023-03-03T01:59:31;101126.41;;;7.38;94.22
42125;BME280;27787;44.594;11.046;2023-03-03T02:02:19;101137.00;;;7.41;94.10
42125;BME280;27787;44.594;11.046;2023-03-03T02:05:03;101132.72;;;7.45;93.94
42125;BME280;27787;44.594;11.046;2023-03-03T02:07:48;101130.16;;;7.46;93.56
42125;BME280;27787;44.594;11.046;2023-03-03T02:10:32;101125.84;;;7.50;93.26
42125;BME280;27787;44.594;11.046;2023-03-03T02:13:17;101136.28;;;7.47;92.79
42125;BME280;27787;44.594;11.046;2023-03-03T02:16:01;101130.16;;;7.46;92.88
42125;BME280;27787;44.594;11.046;2023-03-03T02:18:46;101117.81;;;7.44;92.68
42125;BME280;27787;44.594;11.046;2023-03-03T02:21:30;101116.06;;;7.43;92.63
42125;BME280;27787;44.594;11.046;2023-03-03T02:24:40;101115.06;;;7.39;92.56
42125;BME280;27787;44.594;11.046;2023-03-03T02:27:29;101108.88;;;7.37;93.14
42125;BME280;27787;44.594;11.046;2023-03-03T02:30:19;101109.69;;;7.34;92.35
42125;BME280;27787;44.594;11.046;2023-03-03T02:33:05;101107.00;;;7.31;93.02
42125;BME280;27787;44.594;11.046;2023-03-03T02:35:50;101111.22;;;7.26;92.42
42125;BME280;27787;44.594;11.046;2023-03-03T02:41:42;101105.13;;;7.27;92.90
42125;BME280;27787;44.594;11.046;2023-03-03T02:44:30;101108.72;;;7.29;92.96
42125;BME280;27787;44.594;11.046;2023-03-03T02:47:15;101105.31;;;7.33;92.73
42125;BME280;27787;44.594;11.046;2023-03-03T02:49:59;101108.03;;;7.38;92.57
42125;BME280;27787;44.594;11.046;2023-03-03T02:52:44;101102.94;;;7.44;92.46
42125;BME280;27787;44.594;11.046;2023-03-03T02:55:28;101104.75;;;7.47;92.03
42125;BME280;27787;44.594;11.046;2023-03-03T02:58:12;101097.81;;;7.49;91.73
42125;BME280;27787;44.594;11.046;2023-03-03T03:00:56;101101.28;;;7.48;91.86
42125;BME280;27787;44.594;11.046;2023-03-03T03:03:41;101096.03;;;7.48;91.72
42125;BME280;27787;44.594;11.046;2023-03-03T03:06:26;101090.75;;;7.46;91.95
42125;BME280;27787;44.594;11.046;2023-03-03T03:09:11;101090.78;;;7.48;91.95
42125;BME280;27787;44.594;11.046;2023-03-03T03:11:56;101090.81;;;7.49;92.01
42125;BME280;27787;44.594;11.046;2023-03-03T03:14:43;101095.16;;;7.47;91.68
42125;BME280;27787;44.594;11.046;2023-03-03T03:17:28;101084.56;;;7.44;91.92
42125;BME280;27787;44.594;11.046;2023-03-03T03:20:12;101086.38;;;7.47;92.34
42125;BME280;27787;44.594;11.046;2023-03-03T03:22:57;101097.00;;;7.51;92.09
42125;BME280;27787;44.594;11.046;2023-03-03T03:25:41;101087.28;;;7.47;91.98
42125;BME280;27787;44.594;11.046;2023-03-03T03:28:33;101087.31;;;7.49;92.36
42125;BME280;27787;44.594;11.046;2023-03-03T03:31:19;101089.84;;;7.46;92.81
42125;BME280;27787;44.594;11.046;2023-03-03T03:34:04;101081.97;;;7.46;93.10
42125;BME280;27787;44.594;11.046;2023-03-03T03:36:48;101083.75;;;7.47;93.17
42125;BME280;27787;44.594;11.046;2023-03-03T03:39:35;101089.84;;;7.46;93.10
42125;BME280;27787;44.594;11.046;2023-03-03T03:42:19;101094.19;;;7.44;93.05
42125;BME280;27787;44.594;11.046;2023-03-03T03:45:05;101091.38;;;7.37;93.27
42125;BME280;27787;44.594;11.046;2023-03-03T03:47:50;101086.88;;;7.32;93.68
42125;BME280;27787;44.594;11.046;2023-03-03T03:50:34;101091.00;;;7.22;93.55
42125;BME280;27787;44.594;11.046;2023-03-03T03:53:19;101084.69;;;7.16;93.92
42125;BME280;27787;44.594;11.046;2023-03-03T03:56:05;101085.38;;;7.08;94.36
42125;BME280;27787;44.594;11.046;2023-03-03T03:58:49;101081.91;;;7.09;94.44
42125;BME280;27787;44.594;11.046;2023-03-03T04:01:34;101086.41;;;7.15;94.12
42125;BME280;27787;44.594;11.046;2023-03-03T04:04:18;101081.28;;;7.18;93.72
42125;BME280;27787;44.594;11.046;2023-03-03T04:07:02;101086.53;;;7.18;93.62
42125;BME280;27787;44.594;11.046;2023-03-03T04:09:47;101081.25;;;7.17;93.63
42125;BME280;27787;44.594;11.046;2023-03-03T04:12:31;101086.53;;;7.18;93.83
42125;BME280;27787;44.594;11.046;2023-03-03T04:15:21;101082.88;;;7.13;93.50
42125;BME280;27787;44.594;11.046;2023-03-03T04:18:06;101076.69;;;7.11;93.50
42125;BME280;27787;44.594;11.046;2023-03-03T04:20:50;101078.41;;;7.09;93.64
42125;BME280;27787;44.594;11.046;2023-03-03T04:23:36;101079.28;;;7.09;93.70
42125;BME280;27787;44.594;11.046;2023-03-03T04:26:20;101079.28;;;7.09;93.42
42125;BME280;27787;44.594;11.046;2023-03-03T04:29:05;101080.09;;;7.07;93.21
42125;BME280;27787;44.594;11.046;2023-03-03T04:31:50;101072.16;;;7.04;93.51
42125;BME280;27787;44.594;11.046;2023-03-03T04:34:35;101075.53;;;7.00;93.44
42125;BME280;27787;44.594;11.046;2023-03-03T04:37:20;101072.84;;;6.98;93.66
42125;BME280;27787;44.594;11.046;2023-03-03T04:40:06;101071.06;;;6.96;93.65
42125;BME280;27787;44.594;11.046;2023-03-03T04:42:51;101071.09;;;6.97;93.69
42125;BME280;27787;44.594;11.046;2023-03-03T04:45:36;101072.06;;;7.01;93.47
42125;BME280;27787;44.594;11.046;2023-03-03T04:48:20;101073.81;;;7.02;93.29
42125;BME280;27787;44.594;11.046;2023-03-03T04:51:04;101070.34;;;7.03;93.33
42125;BME280;27787;44.594;11.046;2023-03-03T04:53:51;101073.81;;;7.02;92.96
42125;BME280;27787;44.594;11.046;2023-03-03T04:56:35;101067.69;;;7.01;93.17
42125;BME280;27787;44.594;11.046;2023-03-03T04:59:20;101069.47;;;7.02;92.91
42125;BME280;27787;44.594;11.046;2023-03-03T05:02:04;101065.16;;;7.04;92.82
42125;BME280;27787;44.594;11.046;2023-03-03T05:04:48;101066.91;;;7.04;92.63
42125;BME280;27787;44.594;11.046;2023-03-03T05:07:32;101070.28;;;7.00;92.64
42125;BME280;27787;44.594;11.046;2023-03-03T05:10:16;101058.00;;;6.99;92.53
42125;BME280;27787;44.594;11.046;2023-03-03T05:13:00;101064.09;;;6.98;92.36
42125;BME280;27787;44.594;11.046;2023-03-03T05:15:53;101059.63;;;6.94;92.36
42125;BME280;27787;44.594;11.046;2023-03-03T05:18:40;101058.59;;;6.89;92.50
42125;BME280;27787;44.594;11.046;2023-03-03T05:21:25;101057.59;;;6.84;92.81
42125;BME280;27787;44.594;11.046;2023-03-03T05:24:10;101053.09;;;6.78;92.91
42125;BME280;27787;44.594;11.046;2023-03-03T05:26:55;101056.41;;;6.72;93.15
42125;BME280;27787;44.594;11.046;2023-03-03T05:29:40;101058.16;;;6.72;93.49
42125;BME280;27787;44.594;11.046;2023-03-03T05:32:24;101059.03;;;6.72;93.35
42125;BME280;27787;44.594;11.046;2023-03-03T05:35:08;101063.44;;;6.73;93.22
42125;BME280;27787;44.594;11.046;2023-03-03T05:37:54;101049.44;;;6.73;93.34
42125;BME280;27787;44.594;11.046;2023-03-03T05:40:38;101063.50;;;6.76;93.58
42125;BME280;27787;44.594;11.046;2023-03-03T05:43:22;101061.88;;;6.80;93.46
42125;BME280;27787;44.594;11.046;2023-03-03T05:46:07;101052.28;;;6.80;93.14
42125;BME280;27787;44.594;11.046;2023-03-03T05:48:51;101060.06;;;6.77;93.15
42125;BME280;27787;44.594;11.046;2023-03-03T05:51:35;101046.84;;;6.74;93.48
42125;BME280;27787;44.594;11.046;2023-03-03T05:54:20;101053.09;;;6.78;93.41
42125;BME280;27787;44.594;11.046;2023-03-03T05:57:04;101059.16;;;6.77;93.52
42125;BME280;27787;44.594;11.046;2023-03-03T05:59:48;101056.59;;;6.78;93.82
42125;BME280;27787;44.594;11.046;2023-03-03T06:02:33;101054.91;;;6.80;93.96
42125;BME280;27787;44.594;11.046;2023-03-03T06:05:18;101059.22;;;6.78;93.60
42125;BME280;27787;44.594;11.046;2023-03-03T06:08:03;101062.72;;;6.79;93.70
42125;BME280;27787;44.594;11.046;2023-03-03T06:10:47;101065.31;;;6.77;93.89
42125;BME280;27787;44.594;11.046;2023-03-03T06:13:32;101058.09;;;6.70;94.09
42125;BME280;27787;44.594;11.046;2023-03-03T06:16:16;101064.72;;;6.56;94.74
42125;BME280;27787;44.594;11.046;2023-03-03T06:19:01;101061.66;;;6.41;95.92
42125;BME280;27787;44.594;11.046;2023-03-03T06:21:45;101063.34;;;6.39;97.17
42125;BME280;27787;44.594;11.046;2023-03-03T06:24:29;101050.44;;;6.46;97.33
42125;BME280;27787;44.594;11.046;2023-03-03T06:27:14;101064.72;;;6.56;97.22
42125;BME280;27787;44.594;11.046;2023-03-03T06:29:58;101072.00;;;6.66;96.85
42125;BME280;27787;44.594;11.046;2023-03-03T06:32:42;101068.72;;;6.75;96.63
42125;BME280;27787;44.594;11.046;2023-03-03T06:35:27;101070.69;;;6.82;95.98
42125;BME280;27787;44.594;11.046;2023-03-03T06:38:11;101065.50;;;6.85;95.77
42125;BME280;27787;44.594;11.046;2023-03-03T06:40:55;101071.72;;;6.89;95.74
42125;BME280;27787;44.594;11.046;2023-03-03T06:43:39;101076.22;;;6.93;95.10
42125;BME280;27787;44.594;11.046;2023-03-03T06:46:23;101070.09;;;6.92;94.69
42125;BME280;27787;44.594;11.046;2023-03-03T06:49:07;101078.00;;;6.94;94.75
42125;BME280;27787;44.594;11.046;2023-03-03T06:51:51;101086.84;;;6.97;94.42
42125;BME280;27787;44.594;11.046;2023-03-03T06:54:36;101094.66;;;6.96;93.80
42125;BME280;27787;44.594;11.046;2023-03-03T06:57:25;101093.78;;;6.95;93.55
42125;BME280;27787;44.594;11.046;2023-03-03T07:02:59;101096.47;;;6.98;93.60
42125;BME280;27787;44.594;11.046;2023-03-03T07:05:45;101095.63;;;6.99;93.17
42125;BME280;27787;44.594;11.046;2023-03-03T07:08:30;101100.84;;;6.98;93.24
42125;BME280;27787;44.594;11.046;2023-03-03T07:11:17;101106.06;;;6.96;93.25
42125;BME280;27787;44.594;11.046;2023-03-03T07:14:14;101108.69;;;6.96;93.67
42125;BME280;27787;44.594;11.046;2023-03-03T07:17:00;101103.50;;;6.99;93.71
42125;BME280;27787;44.594;11.046;2023-03-03T07:19:48;101107.00;;;7.00;93.57
42125;BME280;27787;44.594;11.046;2023-03-03T07:22:33;101111.44;;;7.02;93.12
42125;BME280;27787;44.594;11.046;2023-03-03T07:25:36;101111.53;;;7.04;93.20
42125;BME280;27787;44.594;11.046;2023-03-03T07:28:27;101120.19;;;7.01;92.86
42125;BME280;27787;44.594;11.046;2023-03-03T07:31:27;101118.09;;;6.90;93.21
42125;BME280;27787;44.594;11.046;2023-03-03T07:34:45;101123.84;;;6.76;93.81
42125;BME280;27787;44.594;11.046;2023-03-03T07:37:35;101130.66;;;6.70;94.04
42125;BME280;27787;44.594;11.046;2023-03-03T07:43:40;101141.72;;;6.60;94.95
42125;BME280;27787;44.594;11.046;2023-03-03T07:46:36;101133.09;;;6.64;95.10
42125;BME280;27787;44.594;11.046;2023-03-03T07:49:35;101136.03;;;6.74;95.44
42125;BME280;27787;44.594;11.046;2023-03-03T08:04:16;101135.09;;;7.35;93.41
42125;BME280;27787;44.594;11.046;2023-03-03T08:07:01;101142.47;;;7.49;93.53
42125;BME280;27787;44.594;11.046;2023-03-03T08:09:48;101141.81;;;7.57;93.67
42125;BME280;27787;44.594;11.046;2023-03-03T08:12:40;101146.41;;;7.66;93.57
42125;BME280;27787;44.594;11.046;2023-03-03T08:15:30;101150.91;;;7.70;93.38
42125;BME280;27787;44.594;11.046;2023-03-03T08:18:21;101151.94;;;7.77;93.76
42125;BME280;27787;44.594;11.046;2023-03-03T08:21:29;101146.88;;;7.84;93.84
42125;BME280;27787;44.594;11.046;2023-03-03T08:24:15;101144.38;;;7.90;94.00
42125;BME280;27787;44.594;11.046;2023-03-03T08:26:58;101153.28;;;7.95;93.85
42125;BME280;27787;44.594;11.046;2023-03-03T08:29:42;101161.19;;;7.97;93.85
42125;BME280;27787;44.594;11.046;2023-03-03T08:32:26;101165.78;;;8.06;94.18
42125;BME280;27787;44.594;11.046;2023-03-03T08:35:10;101159.03;;;8.17;93.84
42125;BME280;27787;44.594;11.046;2023-03-03T08:37:54;101163.63;;;8.25;93.70
42125;BME280;27787;44.594;11.046;2023-03-03T08:40:38;101161.25;;;8.35;93.56
42125;BME280;27787;44.594;11.046;2023-03-03T08:43:22;101162.25;;;8.41;93.09
42125;BME280;27787;44.594;11.046;2023-03-03T08:46:07;101154.59;;;8.50;93.16
42125;BME280;27787;44.594;11.046;2023-03-03T08:48:54;101157.44;;;8.60;92.92
42125;BME280;27787;44.594;11.046;2023-03-03T08:51:38;101161.06;;;8.66;92.73
42125;BME280;27787;44.594;11.046;2023-03-03T08:54:23;101165.63;;;8.73;92.50
42125;BME280;27787;44.594;11.046;2023-03-03T08:57:07;101163.06;;;8.78;92.60
42125;BME280;27787;44.594;11.046;2023-03-03T08:59:51;101168.53;;;8.87;92.66
42125;BME280;27787;44.594;11.046;2023-03-03T09:02:35;101173.94;;;8.95;92.48
42125;BME280;27787;44.594;11.046;2023-03-03T09:05:21;101166.22;;;9.02;92.20
42125;BME280;27787;44.594;11.046;2023-03-03T09:08:07;101173.28;;;9.06;91.45
42125;BME280;27787;44.594;11.046;2023-03-03T09:10:51;101171.69;;;9.13;91.45
42125;BME280;27787;44.594;11.046;2023-03-03T09:13:35;101168.31;;;9.22;91.64
42125;BME280;27787;44.594;11.046;2023-03-03T09:16:19;101164.03;;;9.25;90.80
42125;BME280;27787;44.594;11.046;2023-03-03T09:19:29;101170.31;;;9.33;90.31
42125;BME280;27787;44.594;11.046;2023-03-03T09:25:00;101175.84;;;9.47;88.68
42125;BME280;27787;44.594;11.046;2023-03-03T09:27:45;101167.88;;;9.44;87.65
42125;BME280;27787;44.594;11.046;2023-03-03T09:30:36;101173.19;;;9.47;88.04
42125;BME280;27787;44.594;11.046;2023-03-03T09:39:21;101176.97;;;9.61;86.75
42125;BME280;27787;44.594;11.046;2023-03-03T09:42:34;101174.41;;;9.64;86.78
42125;BME280;27787;44.594;11.046;2023-03-03T09:50:54;101172.03;;;9.80;81.77
42125;BME280;27787;44.594;11.046;2023-03-03T09:56:45;101173.78;;;9.79;82.47
42125;BME280;27787;44.594;11.046;2023-03-03T09:59:45;101174.81;;;9.89;81.61
42125;BME280;27787;44.594;11.046;2023-03-03T10:02:48;101170.41;;;9.89;82.24
42125;BME280;27787;44.594;11.046;2023-03-03T10:11:29;101171.56;;;10.03;81.54
42125;BME280;27787;44.594;11.046;2023-03-03T10:35:32;101163.50;;;10.52;79.85
42125;BME280;27787;44.594;11.046;2023-03-03T10:41:37;101166.25;;;10.58;79.43
42125;BME280;27787;44.594;11.046;2023-03-03T10:50:33;101158.53;;;10.73;80.29
42125;BME280;27787;44.594;11.046;2023-03-03T10:53:34;101170.13;;;10.84;79.40
42125;BME280;27787;44.594;11.046;2023-03-03T11:02:42;101161.38;;;10.90;77.05
42125;BME280;27787;44.594;11.046;2023-03-03T11:05:50;101158.81;;;10.95;77.54
42125;BME280;27787;44.594;11.046;2023-03-03T11:08:51;101163.22;;;10.96;77.34
42125;BME280;27787;44.594;11.046;2023-03-03T11:12:06;101163.13;;;10.91;74.38
42125;BME280;27787;44.594;11.046;2023-03-03T11:18:41;101158.84;;;10.98;75.28
42125;BME280;27787;44.594;11.046;2023-03-03T11:24:28;101152.72;;;11.03;74.55
42125;BME280;27787;44.594;11.046;2023-03-03T11:30:30;101147.53;;;11.09;72.31
42125;BME280;27787;44.594;11.046;2023-03-03T11:33:27;101143.09;;;11.07;71.82
42125;BME280;27787;44.594;11.046;2023-03-03T11:36:27;101139.63;;;11.11;72.93
42125;BME280;27787;44.594;11.046;2023-03-03T11:39:17;101137.91;;;11.16;71.63
42125;BME280;27787;44.594;11.046;2023-03-03T11:45:17;101133.50;;;11.18;70.49
42125;BME280;27787;44.594;11.046;2023-03-03T11:48:16;101138.06;;;11.31;65.33
42125;BME280;27787;44.594;11.046;2023-03-03T11:51:07;101127.47;;;11.28;67.07
42125;BME280;27787;44.594;11.046;2023-03-03T11:54:04;101130.94;;;11.22;66.98
42125;BME280;27787;44.594;11.046;2023-03-03T11:56:55;101128.28;;;11.21;67.08
42125;BME280;27787;44.594;11.046;2023-03-03T12:00:02;101123.03;;;11.27;68.63
42125;BME280;27787;44.594;11.046;2023-03-03T12:12:06;101107.19;;;11.27;69.04
42125;BME280;27787;44.594;11.046;2023-03-03T12:15:34;101103.69;;;11.28;69.11
42125;BME280;27787;44.594;11.046;2023-03-03T12:31:13;101091.56;;;11.48;65.37
42125;BME280;27787;44.594;11.046;2023-03-03T12:34:10;101094.13;;;11.44;64.18
42125;BME280;27787;44.594;11.046;2023-03-03T12:37:15;101093.22;;;11.39;64.58
42125;BME280;27787;44.594;11.046;2023-03-03T12:40:08;101091.47;;;11.39;64.66
42125;BME280;27787;44.594;11.046;2023-03-03T12:43:02;101087.06;;;11.43;65.40
42125;BME280;27787;44.594;11.046;2023-03-03T12:46:13;101089.81;;;11.50;66.81
42125;BME280;27787;44.594;11.046;2023-03-03T12:49:00;101085.41;;;11.52;67.23
42125;BME280;27787;44.594;11.046;2023-03-03T13:01:43;101076.72;;;11.69;67.91
42125;BME280;27787;44.594;11.046;2023-03-03T13:04:39;101078.56;;;11.76;67.96
42125;BME280;27787;44.594;11.046;2023-03-03T13:07:49;101065.38;;;11.80;65.67
42125;BME280;27787;44.594;11.046;2023-03-03T13:10:50;101071.63;;;11.87;64.23
42125;BME280;27787;44.594;11.046;2023-03-03T13:16:43;101069.81;;;11.85;64.74
42125;BME280;27787;44.594;11.046;2023-03-03T13:19:37;101063.63;;;11.84;64.75
42125;BME280;27787;44.594;11.046;2023-03-03T13:22:30;101063.69;;;11.87;64.48
42125;BME280;27787;44.594;11.046;2023-03-03T13:28:36;101055.75;;;11.90;64.12
42125;BME280;27787;44.594;11.046;2023-03-03T13:31:34;101068.13;;;11.97;64.91
42125;BME280;27787;44.594;11.046;2023-03-03T13:37:21;101044.44;;;12.17;64.99
42125;BME280;27787;44.594;11.046;2023-03-03T13:43:04;101055.13;;;12.35;65.90
42125;BME280;27787;44.594;11.046;2023-03-03T13:46:07;101058.69;;;12.40;64.62
42125;BME280;27787;44.594;11.046;2023-03-03T13:52:10;101042.81;;;12.42;65.67
42125;BME280;27787;44.594;11.046;2023-03-03T13:58:12;101041.09;;;12.53;65.26
42125;BME280;27787;44.594;11.046;2023-03-03T14:01:08;101038.44;;;12.59;65.42
42125;BME280;27787;44.594;11.046;2023-03-03T14:10:07;101033.19;;;12.75;65.98
42125;BME280;27787;44.594;11.046;2023-03-03T14:13:10;101032.34;;;12.79;65.30
42125;BME280;27787;44.594;11.046;2023-03-03T14:15:57;101026.16;;;12.86;65.55
42125;BME280;27787;44.594;11.046;2023-03-03T14:18:52;101021.78;;;12.91;65.71
42125;BME280;27787;44.594;11.046;2023-03-03T14:21:44;101033.25;;;12.97;62.77
42125;BME280;27787;44.594;11.046;2023-03-03T14:30:44;101027.09;;;13.08;62.24
42125;BME280;27787;44.594;11.046;2023-03-03T14:33:28;101022.69;;;13.05;62.43
42125;BME280;27787;44.594;11.046;2023-03-03T14:36:25;101022.66;;;12.99;63.15
42125;BME280;27787;44.594;11.046;2023-03-03T14:39:36;101021.78;;;12.97;62.50
42125;BME280;27787;44.594;11.046;2023-03-03T14:42:39;101018.28;;;13.07;62.99
42125;BME280;27787;44.594;11.046;2023-03-03T14:45:39;101023.59;;;13.24;62.65
42125;BME280;27787;44.594;11.046;2023-03-03T14:48:25;101009.47;;;13.34;62.22
42125;BME280;27787;44.594;11.046;2023-03-03T14:51:23;101016.53;;;13.49;62.27
42125;BME280;27787;44.594;11.046;2023-03-03T14:54:15;101017.41;;;13.63;61.79
42125;BME280;27787;44.594;11.046;2023-03-03T14:57:36;101017.41;;;13.71;58.70
42125;BME280;27787;44.594;11.046;2023-03-03T15:00:33;101009.47;;;13.68;58.25
42125;BME280;27787;44.594;11.046;2023-03-03T15:03:21;101012.97;;;13.65;59.06
42125;BME280;27787;44.594;11.046;2023-03-03T15:06:10;101011.22;;;13.61;59.92
42125;BME280;27787;44.594;11.046;2023-03-03T15:09:24;101012.13;;;13.57;60.16
42125;BME280;27787;44.594;11.046;2023-03-03T15:12:34;101008.59;;;13.55;60.29
42125;BME280;27787;44.594;11.046;2023-03-03T15:15:23;101013.00;;;13.50;60.68
42125;BME280;27787;44.594;11.046;2023-03-03T15:18:12;101015.69;;;13.44;61.61
42125;BME280;27787;44.594;11.046;2023-03-03T15:21:17;101010.34;;;13.39;62.60
42125;BME280;27787;44.594;11.046;2023-03-03T15:24:33;101019.19;;;13.34;63.37
42125;BME280;27787;44.594;11.046;2023-03-03T15:27:27;101004.16;;;13.25;63.83
42125;BME280;27787;44.594;11.046;2023-03-03T15:30:42;101009.44;;;13.17;62.91
42125;BME280;27787;44.594;11.046;2023-03-03T15:33:45;101011.19;;;13.08;63.01
42125;BME280;27787;44.594;11.046;2023-03-03T15:42:34;101018.22;;;12.87;65.38
42125;BME280;27787;44.594;11.046;2023-03-03T15:45:26;101021.75;;;12.85;65.33
42125;BME280;27787;44.594;11.046;2023-03-03T16:03:25;101020.88;;;12.83;66.04
42125;BME280;27787;44.594;11.046;2023-03-03T16:06:19;101020.03;;;12.91;66.04
42125;BME280;27787;44.594;11.046;2023-03-03T16:12:38;101027.97;;;13.08;65.55
42125;BME280;27787;44.594;11.046;2023-03-03T16:33:33;101030.59;;;12.81;66.92
42125;BME280;27787;44.594;11.046;2023-03-03T16:36:28;101034.97;;;12.73;67.35
42125;BME280;27787;44.594;11.046;2023-03-03T16:42:36;101039.34;;;12.58;68.69
42125;BME280;27787;44.594;11.046;2023-03-03T16:45:26;101041.09;;;12.53;68.60
42125;BME280;27787;44.594;11.046;2023-03-03T16:48:18;101043.69;;;12.49;68.83
42125;BME280;27787;44.594;11.046;2023-03-03T16:57:18;101045.41;;;12.30;69.76
42125;BME280;27787;44.594;11.046;2023-03-03T17:00:29;101052.41;;;12.20;70.97
42125;BME280;27787;44.594;11.046;2023-03-03T17:15:35;101057.44;;;11.79;72.67
42125;BME280;27787;44.594;11.046;2023-03-03T17:24:31;101066.13;;;11.69;72.96
42125;BME280;27787;44.594;11.046;2023-03-03T17:30:16;101081.91;;;11.55;73.93
42125;BME280;27787;44.594;11.046;2023-03-03T17:41:59;101080.78;;;11.29;74.49
42125;BME280;27787;44.594;11.046;2023-03-03T17:45:07;101092.19;;;11.21;74.59
42125;BME280;27787;44.594;11.046;2023-03-03T17:53:54;101100.91;;;11.16;75.69
42125;BME280;27787;44.594;11.046;2023-03-03T18:22:20;101120.88;;;10.89;79.76
42125;BME280;27787;44.594;11.046;2023-03-03T18:25:10;101124.31;;;10.82;80.14
42125;BME280;27787;44.594;11.046;2023-03-03T18:33:59;101133.84;;;10.71;81.51
42125;BME280;27787;44.594;11.046;2023-03-03T18:37:42;101135.53;;;10.66;81.40
42125;BME280;27787;44.594;11.046;2023-03-03T18:42:50;101135.59;;;10.69;80.83
42125;BME280;27787;44.594;11.046;2023-03-03T18:48:50;101132.13;;;10.73;80.65
42125;BME280;27787;44.594;11.046;2023-03-03T18:54:27;101132.09;;;10.70;80.88
42125;BME280;27787;44.594;11.046;2023-03-03T18:57:16;101137.25;;;10.61;81.00
42125;BME280;27787;44.594;11.046;2023-03-03T19:00:22;101140.72;;;10.58;81.90
42125;BME280;27787;44.594;11.046;2023-03-03T19:03:31;101145.09;;;10.55;81.86
42125;BME280;27787;44.594;11.046;2023-03-03T19:09:45;101144.09;;;10.47;82.41
42125;BME280;27787;44.594;11.046;2023-03-03T19:12:49;101153.81;;;10.51;81.75
42125;BME280;27787;44.594;11.046;2023-03-03T19:15:43;101147.78;;;10.59;81.21
42125;BME280;27787;44.594;11.046;2023-03-03T19:21:33;101155.88;;;10.72;80.45
42125;BME280;27787;44.594;11.046;2023-03-03T19:24:30;101161.19;;;10.75;80.65
42125;BME280;27787;44.594;11.046;2023-03-03T19:27:32;101159.44;;;10.77;80.75
42125;BME280;27787;44.594;11.046;2023-03-03T19:48:11;101172.50;;;10.68;80.91
42125;BME280;27787;44.594;11.046;2023-03-03T19:51:55;101175.06;;;10.60;81.23
42125;BME280;27787;44.594;11.046;2023-03-03T19:54:41;101176.81;;;10.58;81.62
42125;BME280;27787;44.594;11.046;2023-03-03T20:00:41;101198.63;;;10.46;81.93